Time,TemperatureF,DewpointF,PressureIn,WindDirection,WindDirectionDegrees,WindSpeedMPH,WindSpeedGustMPH,Humidity,HourlyPrecipIn,Conditions,Clouds,dailyrainin,SolarRadiationWatts/m^2,SoftwareType,DateUTC
2013-08-25 00:02:00,-999.0,-99.9,-100.00,NNW,345,1.0,3.0,-999,-99.99,,,-99.99,0.000000,,2013-08-25 04:02:00,
2013-08-25 00:44:00,69.0,66.0,-100.00,ESE,109,3.0,7.0,89,0.00,,,0.00,0.000000,,2013-08-25 04:44:00,
2013-08-25 00:54:00,69.0,66.0,-100.00,ESE,109,3.0,7.0,89,0.00,,,0.00,0.000000,,2013-08-25 04:54:00,
2013-08-25 01:03:00,69.0,66.0,-100.00,ESE,109,3.0,7.0,89,0.00,,,0.00,0.000000,,2013-08-25 05:03:00,
2013-08-25 01:43:00,70.0,59.0,-100.00,ENE,66,4.0,13.0,68,0.00,,,0.00,0.000000,,2013-08-25 05:43:00,
2013-08-25 01:52:00,70.0,59.0,-100.00,ENE,66,4.0,13.0,68,0.00,,,0.00,0.000000,,2013-08-25 05:52:00,
2013-08-25 02:03:00,70.0,59.0,-100.00,ENE,66,4.0,13.0,68,0.00,,,0.00,0.000000,,2013-08-25 06:03:00,
2013-08-25 02:43:00,69.0,58.0,-100.00,ENE,63,5.0,10.0,67,0.00,,,0.00,0.000000,,2013-08-25 06:43:00,
2013-08-25 02:52:00,69.0,58.0,-100.00,ENE,63,5.0,10.0,67,0.00,,,0.00,0.000000,,2013-08-25 06:52:00,
2013-08-25 03:01:00,69.0,58.0,-100.00,ENE,63,5.0,10.0,67,0.00,,,0.00,0.000000,,2013-08-25 07:01:00,
2013-08-25 03:42:00,68.0,56.0,-100.00,NE,47,4.0,12.0,65,0.00,,,0.00,0.000000,,2013-08-25 07:42:00,
2013-08-25 03:52:00,68.0,56.0,-100.00,NE,47,4.0,12.0,65,0.00,,,0.00,0.000000,,2013-08-25 07:52:00,
2013-08-25 04:02:00,68.0,56.0,-100.00,NE,47,4.0,12.0,65,0.00,,,0.00,0.000000,,2013-08-25 08:02:00,
2013-08-25 04:42:00,65.0,55.0,-100.00,North,352,2.0,7.0,71,0.00,,,0.00,0.000000,,2013-08-25 08:42:00,
2013-08-25 04:52:00,65.0,55.0,-100.00,North,352,2.0,7.0,71,0.00,,,0.00,0.000000,,2013-08-25 08:52:00,
2013-08-25 05:02:00,65.0,55.0,-100.00,North,352,2.0,7.0,71,0.00,,,0.00,0.000000,,2013-08-25 09:02:00,
2013-08-25 05:44:00,63.0,57.0,-100.00,West,279,3.0,9.0,82,0.00,,,0.00,0.000000,,2013-08-25 09:44:00,
2013-08-25 05:55:00,63.0,57.0,-100.00,West,279,3.0,9.0,82,0.00,,,0.00,0.000000,,2013-08-25 09:55:00,
2013-08-25 06:03:00,63.0,57.0,-100.00,West,279,3.0,9.0,82,0.00,,,0.00,0.000000,,2013-08-25 10:03:00,
2013-08-25 06:42:00,60.0,60.0,-100.00,West,261,2.0,5.0,99,0.00,,,0.00,0.000000,,2013-08-25 10:42:00,
2013-08-25 06:53:00,60.0,60.0,-100.00,West,261,2.0,5.0,99,0.00,,,0.00,0.000000,,2013-08-25 10:53:00,
2013-08-25 07:02:00,60.0,60.0,-100.00,West,261,2.0,5.0,99,0.00,,,0.00,0.000000,,2013-08-25 11:02:00,
2013-08-25 07:42:00,59.0,59.0,-100.00,NW,304,2.0,5.0,100,0.00,,,0.00,0.000000,,2013-08-25 11:42:00,
2013-08-25 07:52:00,59.0,59.0,-100.00,NW,304,2.0,5.0,100,0.00,,,0.00,0.000000,,2013-08-25 11:52:00,
2013-08-25 08:02:00,59.0,59.0,-100.00,NW,304,2.0,5.0,100,0.00,,,0.00,0.000000,,2013-08-25 12:02:00,
2013-08-25 08:43:00,62.0,62.0,-100.00,WNW,293,2.0,4.0,100,0.00,,,0.00,45.000000,,2013-08-25 12:43:00,
2013-08-25 08:52:00,62.0,62.0,-100.00,WNW,293,2.0,4.0,100,0.00,,,0.00,45.000000,,2013-08-25 12:52:00,
2013-08-25 09:02:00,62.0,62.0,-100.00,WNW,293,2.0,4.0,100,0.00,,,0.00,45.000000,,2013-08-25 13:02:00,
2013-08-25 10:42:00,72.0,59.0,-100.00,ENE,60,4.0,8.0,64,-99.99,,,-99.99,471.000000,,2013-08-25 14:42:00,
2013-08-25 10:52:00,72.0,59.0,-100.00,ENE,60,4.0,8.0,64,-99.99,,,-99.99,471.000000,,2013-08-25 14:52:00,
2013-08-25 11:01:00,72.0,59.0,-100.00,ENE,60,4.0,8.0,64,-99.99,,,-99.99,471.000000,,2013-08-25 15:01:00,
2013-08-25 11:05:00,74.0,59.0,-100.00,ENE,73,4.0,11.0,59,0.00,,,0.00,695.000000,,2013-08-25 15:05:00,
2013-08-25 11:44:00,74.0,59.0,-100.00,ENE,73,4.0,11.0,59,0.00,,,0.00,695.000000,,2013-08-25 15:44:00,
2013-08-25 11:55:00,74.0,59.0,-100.00,ENE,73,4.0,11.0,59,0.00,,,0.00,695.000000,,2013-08-25 15:55:00,
2013-08-25 12:44:00,76.0,61.0,-100.00,SSE,152,4.0,9.0,59,0.00,,,0.00,843.000000,,2013-08-25 16:44:00,
2013-08-25 12:54:00,76.0,61.0,-100.00,SSE,152,4.0,9.0,59,0.00,,,0.00,843.000000,,2013-08-25 16:54:00,
2013-08-25 13:03:00,76.0,61.0,-100.00,SSE,152,4.0,9.0,59,0.00,,,0.00,843.000000,,2013-08-25 17:03:00,
2013-08-25 13:43:00,76.0,59.0,-100.00,ESE,107,4.0,11.0,56,0.00,,,0.00,848.000000,,2013-08-25 17:43:00,
2013-08-25 13:53:00,76.0,59.0,-100.00,ESE,107,4.0,11.0,56,0.00,,,0.00,848.000000,,2013-08-25 17:53:00,
2013-08-25 14:02:00,76.0,59.0,-100.00,ESE,107,4.0,11.0,56,0.00,,,0.00,848.000000,,2013-08-25 18:02:00,
2013-08-25 14:43:00,76.0,62.0,-100.00,South,171,4.0,10.0,61,0.00,,,0.00,652.000000,,2013-08-25 18:43:00,
2013-08-25 14:52:00,76.0,62.0,-100.00,South,171,4.0,10.0,61,0.00,,,0.00,652.000000,,2013-08-25 18:52:00,
2013-08-25 15:02:00,76.0,62.0,-100.00,South,171,4.0,10.0,61,0.00,,,0.00,652.000000,,2013-08-25 19:02:00,
2013-08-25 15:42:00,77.0,61.0,-100.00,NE,45,4.0,11.0,57,0.00,,,0.00,794.000000,,2013-08-25 19:42:00,
2013-08-25 15:53:00,77.0,61.0,-100.00,NE,45,4.0,11.0,57,0.00,,,0.00,794.000000,,2013-08-25 19:53:00,
2013-08-25 16:03:00,77.0,61.0,-100.00,NE,45,4.0,11.0,57,0.00,,,0.00,794.000000,,2013-08-25 20:03:00,
2013-08-25 16:43:00,77.0,61.0,-100.00,South,177,3.0,8.0,57,0.00,,,0.00,697.000000,,2013-08-25 20:43:00,
2013-08-25 16:53:00,77.0,61.0,-100.00,South,177,3.0,8.0,57,0.00,,,0.00,697.000000,,2013-08-25 20:53:00,
2013-08-25 17:02:00,77.0,61.0,-100.00,South,177,3.0,8.0,57,0.00,,,0.00,697.000000,,2013-08-25 21:02:00,
2013-08-25 17:43:00,78.0,62.0,-100.00,North,359,2.0,7.0,57,0.00,,,0.00,438.000000,,2013-08-25 21:43:00,
2013-08-25 17:55:00,78.0,62.0,-100.00,North,359,2.0,7.0,57,0.00,,,0.00,438.000000,,2013-08-25 21:55:00,
2013-08-25 18:03:00,78.0,62.0,-100.00,North,359,2.0,7.0,57,0.00,,,0.00,438.000000,,2013-08-25 22:03:00,
2013-08-25 18:43:00,78.0,61.0,-100.00,ESE,111,3.0,7.0,56,0.00,,,0.00,128.000000,,2013-08-25 22:43:00,
2013-08-25 18:53:00,78.0,61.0,-100.00,ESE,111,3.0,7.0,56,0.00,,,0.00,128.000000,,2013-08-25 22:53:00,
2013-08-25 19:03:00,78.0,61.0,-100.00,ESE,111,3.0,7.0,56,0.00,,,0.00,128.000000,,2013-08-25 23:03:00,
2013-08-25 19:43:00,75.0,60.0,-100.00,SW,234,3.0,6.0,60,0.00,,,0.00,152.000000,,2013-08-25 23:43:00,
2013-08-25 19:53:00,75.0,60.0,-100.00,SW,234,3.0,6.0,60,0.00,,,0.00,152.000000,,2013-08-25 23:53:00,
2013-08-25 20:02:00,75.0,60.0,-100.00,SW,234,3.0,6.0,60,0.00,,,0.00,152.000000,,2013-08-26 00:02:00,
2013-08-25 20:42:00,69.0,61.0,-100.00,North,1,1.0,4.0,76,0.00,,,0.00,45.000000,,2013-08-26 00:42:00,
2013-08-25 20:52:00,69.0,61.0,-100.00,North,1,1.0,4.0,76,0.00,,,0.00,45.000000,,2013-08-26 00:52:00,
2013-08-25 21:01:00,69.0,61.0,-100.00,North,1,1.0,4.0,76,0.00,,,0.00,45.000000,,2013-08-26 01:01:00,
2013-08-25 21:42:00,67.0,65.0,-100.00,West,269,2.0,4.0,93,0.00,,,0.00,1.000000,,2013-08-26 01:42:00,
2013-08-25 21:52:00,67.0,65.0,-100.00,West,269,2.0,4.0,93,0.00,,,0.00,1.000000,,2013-08-26 01:52:00,
2013-08-25 22:02:00,67.0,65.0,-100.00,West,269,2.0,4.0,93,0.00,,,0.00,1.000000,,2013-08-26 02:02:00,
2013-08-25 22:42:00,65.0,65.0,-100.00,NNE,12,0.0,3.0,100,0.00,,,0.00,0.000000,,2013-08-26 02:42:00,
2013-08-25 22:52:00,65.0,65.0,-100.00,NNE,12,0.0,3.0,100,0.00,,,0.00,0.000000,,2013-08-26 02:52:00,
2013-08-25 23:02:00,65.0,65.0,-100.00,NNE,12,0.0,3.0,100,0.00,,,0.00,0.000000,,2013-08-26 03:02:00,
2013-08-25 23:05:00,63.0,63.0,-100.00,WNW,295,0.0,2.0,100,0.00,,,0.00,0.000000,,2013-08-26 03:05:00,
2013-08-25 23:44:00,63.0,63.0,-100.00,WNW,295,0.0,2.0,100,0.00,,,0.00,0.000000,,2013-08-26 03:44:00,
2013-08-25 23:56:00,63.0,63.0,-100.00,WNW,295,0.0,2.0,100,0.00,,,0.00,0.000000,,2013-08-26 03:56:00,